Time;durP1;ratioP1;P1;durP2;ratioP2;P2;SDS_P1;SDS_P2;PMS_P1;PMS_P2;Temp;Humidity;BMP_temperature;BMP_pressure;BME280_temperature;BME280_humidity;BME280_pressure;Samples;Min_cycle;Max_cycle;Signal;HPM_P1;HPM_P2
2021/09/23 00:01:17;;;;;;;7.00;4.05;;;20.20;59.20;;;;;;6275202;28;20497;-76
2021/09/23 00:04:31;;;;;;;5.82;4.07;;;20.20;59.30;;;;;;6268314;28;20044;-78
2021/09/23 00:07:32;;;;;;;5.65;3.85;;;20.20;59.30;;;;;;6256336;28;20048;-76
2021/09/23 00:10:39;;;;;;;10.52;4.82;;;20.20;59.20;;;;;;6241486;28;20037;-76
2021/09/23 00:13:40;;;;;;;8.02;4.30;;;20.20;59.10;;;;;;6268088;28;20374;-76
2021/09/23 00:16:41;;;;;;;7.65;4.60;;;20.20;59.10;;;;;;6256529;28;20033;-77
2021/09/23 00:19:42;;;;;;;6.93;4.57;;;20.10;59.00;;;;;;6272162;28;20059;-77
2021/09/23 00:22:43;;;;;;;8.27;4.18;;;20.00;59.00;;;;;;6243762;28;20447;-77
2021/09/23 00:25:45;;;;;;;9.85;5.00;;;20.00;59.10;;;;;;6249491;28;20033;-77
2021/09/23 00:28:46;;;;;;;8.65;5.05;;;20.00;59.10;;;;;;6247655;28;20532;-77
2021/09/23 00:31:47;;;;;;;9.60;4.57;;;20.00;59.00;;;;;;6238561;28;20040;-77
2021/09/23 00:34:48;;;;;;;7.63;4.88;;;20.00;59.00;;;;;;6249092;28;20443;-77
2021/09/23 00:37:50;;;;;;;9.18;4.82;;;20.00;58.90;;;;;;6270893;28;20040;-77
2021/09/23 00:40:51;;;;;;;7.90;4.78;;;20.00;58.80;;;;;;6272608;28;20045;-77
2021/09/23 00:43:52;;;;;;;10.88;4.28;;;20.00;58.80;;;;;;6273753;28;20446;-77
2021/09/23 00:46:53;;;;;;;10.43;4.43;;;20.00;58.80;;;;;;6273330;28;20500;-78
2021/09/23 00:49:57;;;;;;;10.63;4.47;;;20.00;58.80;;;;;;6256401;28;20028;-77
2021/09/23 00:52:58;;;;;;;10.55;4.88;;;19.90;58.80;;;;;;6272607;28;20037;-77
2021/09/23 00:55:59;;;;;;;7.72;4.10;;;19.90;58.80;;;;;;6260731;28;20038;-77
2021/09/23 00:59:04;;;;;;;8.55;4.85;;;20.00;58.80;;;;;;6248663;28;20035;-77
2021/09/23 01:02:06;;;;;;;10.43;4.43;;;20.00;58.90;;;;;;6252263;28;20334;-77
2021/09/23 01:05:08;;;;;;;7.07;3.95;;;19.90;58.70;;;;;;6248657;28;20032;-77
2021/09/23 01:08:09;;;;;;;12.93;4.35;;;19.90;58.70;;;;;;6252598;28;20026;-77
2021/09/23 01:11:10;;;;;;;9.73;4.53;;;19.90;58.70;;;;;;6244674;28;20445;-78
2021/09/23 01:14:11;;;;;;;8.30;4.30;;;20.00;58.70;;;;;;6248085;28;20026;-77
2021/09/23 01:17:18;;;;;;;7.88;4.00;;;19.90;58.60;;;;;;6232201;28;20041;-77
2021/09/23 01:20:30;;;;;;;6.60;4.05;;;20.00;58.70;;;;;;6248348;28;20048;-77
2021/09/23 01:23:36;;;;;;;7.50;4.40;;;19.90;58.50;;;;;;6248088;28;20033;-77
2021/09/23 01:26:37;;;;;;;7.15;4.22;;;19.90;58.50;;;;;;6265728;28;20056;-77
2021/09/23 01:29:49;;;;;;;10.07;5.20;;;19.90;58.50;;;;;;6264474;28;20066;-77
2021/09/23 01:32:51;;;;;;;6.47;4.05;;;19.90;58.50;;;;;;6254382;28;20033;-78
2021/09/23 01:35:55;;;;;;;7.38;4.30;;;19.90;58.40;;;;;;6249305;28;20103;-78
2021/09/23 01:38:56;;;;;;;8.35;4.90;;;19.90;58.30;;;;;;6252021;28;20178;-78
2021/09/23 01:41:58;;;;;;;8.50;4.57;;;19.90;58.20;;;;;;6271711;28;20033;-77
2021/09/23 01:45:05;;;;;;;10.75;4.82;;;20.00;58.20;;;;;;6248068;28;20059;-77
2021/09/23 01:48:14;;;;;;;9.68;4.43;;;20.00;58.10;;;;;;6232261;28;20049;-77
2021/09/23 01:51:18;;;;;;;9.73;4.40;;;20.00;58.00;;;;;;6247458;28;20510;-77
2021/09/23 01:54:20;;;;;;;6.80;3.97;;;19.90;57.90;;;;;;6230648;28;20111;-78
2021/09/23 01:57:21;;;;;;;7.18;4.00;;;19.90;57.90;;;;;;6228880;28;20481;-77
2021/09/23 02:00:22;;;;;;;7.10;4.30;;;19.90;58.00;;;;;;6247440;28;20036;-77
2021/09/23 02:03:25;;;;;;;9.50;5.32;;;19.90;58.00;;;;;;6255575;28;20028;-77
2021/09/23 02:06:49;;;;;;;7.68;4.38;;;19.80;58.00;;;;;;6260663;28;20025;-77
2021/09/23 02:09:51;;;;;;;7.80;4.55;;;19.80;58.10;;;;;;6270511;28;20183;-78
2021/09/23 02:12:52;;;;;;;11.15;4.22;;;19.70;58.30;;;;;;6269570;28;20036;-78
2021/09/23 02:15:53;;;;;;;9.35;4.45;;;19.60;58.40;;;;;;6249149;28;20343;-77
2021/09/23 02:18:54;;;;;;;9.88;4.50;;;19.50;58.60;;;;;;6264626;28;20064;-77
2021/09/23 02:21:57;;;;;;;10.13;4.68;;;19.40;58.80;;;;;;6229440;28;20043;-77
2021/09/23 02:25:00;;;;;;;7.28;4.80;;;19.40;59.00;;;;;;6254990;28;20060;-77
2021/09/23 02:28:01;;;;;;;10.30;4.03;;;19.30;59.10;;;;;;6269728;28;20064;-77
2021/09/23 02:31:02;;;;;;;10.77;4.90;;;19.30;59.30;;;;;;6245357;28;20435;-77
2021/09/23 02:34:03;;;;;;;9.68;4.47;;;19.20;59.30;;;;;;6249342;28;20025;-77
2021/09/23 02:37:06;;;;;;;13.05;5.13;;;19.20;59.50;;;;;;6245881;28;20470;-77
2021/09/23 02:40:09;;;;;;;10.57;4.78;;;19.10;59.60;;;;;;6239209;28;20026;-77
2021/09/23 02:43:10;;;;;;;10.13;4.93;;;19.10;59.80;;;;;;6229218;28;20029;-77
2021/09/23 02:46:10;;;;;;;7.60;4.60;;;19.00;59.90;;;;;;6229004;28;20103;-77
2021/09/23 02:49:12;;;;;;;7.35;4.68;;;19.00;60.00;;;;;;6245372;28;20064;-77
2021/09/23 02:52:13;;;;;;;12.98;5.05;;;19.00;60.00;;;;;;6245639;28;20037;-77
2021/09/23 02:55:14;;;;;;;8.63;4.90;;;19.00;60.00;;;;;;6240892;28;20060;-77
2021/09/23 02:58:15;;;;;;;8.55;5.07;;;19.00;60.00;;;;;;6269297;28;20028;-77
2021/09/23 03:01:18;;;;;;;8.38;5.20;;;19.00;59.90;;;;;;6268842;28;20328;-77
2021/09/23 03:04:19;;;;;;;10.25;5.45;;;19.10;60.00;;;;;;6236777;28;22518;-77
2021/09/23 03:07:20;;;;;;;7.82;4.55;;;19.10;59.90;;;;;;6266653;28;20069;-77
2021/09/23 03:10:21;;;;;;;8.63;4.38;;;19.10;59.90;;;;;;6273164;28;20040;-77
2021/09/23 03:13:22;;;;;;;12.00;4.80;;;19.10;59.90;;;;;;6273526;28;20119;-77
2021/09/23 03:16:23;;;;;;;7.53;4.32;;;19.10;59.90;;;;;;6273157;28;20044;-77
2021/09/23 03:19:26;;;;;;;9.00;5.15;;;19.10;60.00;;;;;;6244136;28;20350;-77
2021/09/23 03:22:28;;;;;;;14.88;4.95;;;19.10;60.00;;;;;;6266897;28;20030;-77
2021/09/23 03:25:30;;;;;;;8.48;5.03;;;19.00;60.00;;;;;;6261360;28;20369;-77
2021/09/23 03:28:33;;;;;;;8.90;5.15;;;19.10;60.10;;;;;;6256703;28;20454;-77
2021/09/23 03:31:35;;;;;;;10.75;5.43;;;19.10;60.10;;;;;;6273248;28;20338;-77
2021/09/23 03:34:36;;;;;;;9.80;4.95;;;19.10;60.10;;;;;;6250966;28;20354;-77
2021/09/23 03:37:40;;;;;;;13.43;5.60;;;19.10;60.00;;;;;;6248441;28;20056;-77
2021/09/23 03:40:45;;;;;;;8.68;5.38;;;19.00;60.00;;;;;;6250130;28;20512;-77
2021/09/23 03:43:46;;;;;;;9.43;5.03;;;19.00;60.10;;;;;;6249216;28;20025;-77
2021/09/23 03:46:47;;;;;;;9.35;5.10;;;19.00;60.10;;;;;;6250135;28;20412;-77
2021/09/23 03:49:48;;;;;;;9.35;5.18;;;19.10;60.10;;;;;;6261599;28;20032;-77
2021/09/23 03:52:50;;;;;;;12.98;5.03;;;19.00;60.10;;;;;;6232660;28;20030;-77
2021/09/23 03:55:51;;;;;;;8.00;4.82;;;19.00;60.10;;;;;;6225345;28;20034;-77
2021/09/23 03:58:52;;;;;;;8.75;5.07;;;19.10;60.10;;;;;;6230817;28;20026;-77
2021/09/23 04:01:53;;;;;;;14.55;5.05;;;19.00;60.00;;;;;;6260837;28;20356;-77
2021/09/23 04:04:54;;;;;;;10.00;5.53;;;19.00;60.10;;;;;;6249411;28;20036;-77
2021/09/23 04:07:56;;;;;;;10.68;6.10;;;19.00;60.20;;;;;;6254703;28;20025;-77
2021/09/23 04:10:56;;;;;;;10.80;4.85;;;18.90;60.40;;;;;;6272337;28;20434;-77
2021/09/23 04:13:57;;;;;;;14.18;6.22;;;18.90;60.50;;;;;;6240993;28;20057;-77
2021/09/23 04:16:58;;;;;;;11.27;5.55;;;18.90;60.60;;;;;;6252724;28;20094;-77
2021/09/23 04:20:00;;;;;;;9.35;5.05;;;18.90;60.50;;;;;;6252285;28;20041;-77
2021/09/23 04:23:01;;;;;;;10.20;5.35;;;18.90;60.50;;;;;;6248177;28;20047;-77
2021/09/23 04:26:02;;;;;;;12.45;5.60;;;18.90;60.60;;;;;;6263725;28;20354;-77
2021/09/23 04:29:04;;;;;;;14.25;4.60;;;18.80;60.70;;;;;;6255281;28;20040;-77
2021/09/23 04:32:05;;;;;;;10.13;5.47;;;18.80;60.80;;;;;;6271966;28;20028;-77
2021/09/23 04:35:08;;;;;;;12.45;5.97;;;18.70;61.00;;;;;;6256174;28;20040;-77
2021/09/23 04:38:09;;;;;;;9.45;4.95;;;18.70;61.10;;;;;;6271728;28;20055;-77
2021/09/23 04:41:11;;;;;;;10.52;4.85;;;18.70;61.10;;;;;;6247446;28;20362;-77
2021/09/23 04:44:13;;;;;;;12.38;5.70;;;18.60;61.10;;;;;;6207401;28;20046;-77
2021/09/23 04:47:14;;;;;;;9.25;4.93;;;18.60;61.20;;;;;;6212734;28;20459;-76
2021/09/23 04:50:19;;;;;;;8.50;4.75;;;18.60;61.20;;;;;;6237744;28;20455;-76
2021/09/23 04:53:21;;;;;;;10.23;4.80;;;18.60;61.20;;;;;;6248921;28;20033;-77
2021/09/23 04:56:22;;;;;;;8.98;5.20;;;18.60;61.10;;;;;;6249164;28;20061;-77
2021/09/23 04:59:23;;;;;;;7.90;4.53;;;18.60;61.20;;;;;;6232023;28;20029;-76
2021/09/23 05:02:24;;;;;;;9.48;5.78;;;18.60;61.20;;;;;;6239259;28;20030;-77
2021/09/23 05:05:25;;;;;;;9.27;5.53;;;18.60;61.30;;;;;;6269711;28;20350;-77
2021/09/23 05:08:27;;;;;;;21.55;5.45;;;18.60;61.30;;;;;;6247094;28;20029;-76
2021/09/23 05:11:28;;;;;;;9.55;4.78;;;18.70;61.40;;;;;;6241038;28;20427;-76
2021/09/23 05:14:30;;;;;;;9.20;5.15;;;18.60;61.30;;;;;;6264836;28;20045;-76
2021/09/23 05:17:31;;;;;;;9.50;5.50;;;18.60;61.40;;;;;;6271364;28;20055;-77
2021/09/23 05:20:32;;;;;;;14.65;5.95;;;18.60;61.40;;;;;;6237822;28;20358;-77
2021/09/23 05:23:33;;;;;;;10.88;5.82;;;18.60;61.40;;;;;;6248258;28;20029;-77
2021/09/23 05:26:34;;;;;;;9.80;5.30;;;18.60;61.40;;;;;;6243914;28;20033;-77
2021/09/23 05:29:35;;;;;;;9.07;5.68;;;18.60;61.40;;;;;;6228257;28;20095;-77
2021/09/23 05:32:36;;;;;;;9.00;5.60;;;18.60;61.40;;;;;;6241503;28;20442;-77
2021/09/23 05:35:36;;;;;;;12.13;4.93;;;18.60;61.50;;;;;;6239482;28;20032;-77
2021/09/23 05:38:38;;;;;;;11.95;5.75;;;18.70;61.40;;;;;;6246453;28;20022;-77
2021/09/23 05:41:41;;;;;;;16.95;5.75;;;18.70;61.30;;;;;;6277456;28;20069;-77
2021/09/23 05:44:42;;;;;;;10.60;5.70;;;18.70;61.20;;;;;;6260845;28;20058;-77
2021/09/23 05:47:44;;;;;;;9.43;5.20;;;18.70;61.10;;;;;;6247182;28;20075;-76
2021/09/23 05:50:44;;;;;;;11.00;6.38;;;18.70;61.00;;;;;;6248397;28;20483;-76
2021/09/23 05:53:45;;;;;;;13.85;5.45;;;18.70;61.00;;;;;;6263013;28;20025;-79
2021/09/23 05:56:46;;;;;;;11.55;5.15;;;18.70;61.10;;;;;;6271029;28;20044;-77
2021/09/23 05:59:47;;;;;;;14.00;5.47;;;18.70;61.10;;;;;;6270714;28;20037;-76
2021/09/23 06:02:48;;;;;;;11.75;5.53;;;18.80;61.10;;;;;;6242771;28;20090;-77
2021/09/23 06:05:49;;;;;;;11.32;5.28;;;18.80;61.10;;;;;;6229439;28;20029;-76
2021/09/23 06:08:50;;;;;;;16.10;5.75;;;18.80;60.80;;;;;;6262556;28;20033;-77
2021/09/23 06:11:52;;;;;;;12.07;6.07;;;18.90;60.80;;;;;;6268121;28;20047;-77
2021/09/23 06:14:53;;;;;;;8.82;4.63;;;18.90;60.50;;;;;;6259438;28;20037;-77
2021/09/23 06:17:54;;;;;;;9.02;4.88;;;18.90;60.40;;;;;;6242051;28;20043;-77
2021/09/23 06:20:55;;;;;;;8.52;5.18;;;19.00;60.40;;;;;;6245287;28;20025;-76
2021/09/23 06:23:56;;;;;;;10.90;5.18;;;19.10;60.30;;;;;;6269677;28;20040;-77
2021/09/23 06:26:57;;;;;;;13.13;5.90;;;19.10;60.00;;;;;;6268709;28;20032;-77
2021/09/23 06:29:58;;;;;;;16.70;5.80;;;19.10;59.90;;;;;;6270817;28;20362;-77
2021/09/23 06:32:59;;;;;;;13.40;6.80;;;19.20;59.80;;;;;;6270525;28;20051;-76
2021/09/23 06:36:00;;;;;;;13.40;6.88;;;19.20;59.70;;;;;;6250508;28;20042;-77
2021/09/23 06:39:03;;;;;;;11.90;5.97;;;19.20;59.60;;;;;;6221791;28;20450;-77
2021/09/23 06:42:04;;;;;;;17.58;6.63;;;19.20;59.60;;;;;;6230975;28;20022;-78
2021/09/23 06:45:05;;;;;;;11.65;6.22;;;19.30;59.60;;;;;;6235900;28;20354;-77
2021/09/23 06:48:07;;;;;;;14.32;6.68;;;19.30;59.60;;;;;;6236957;28;20061;-78
2021/09/23 06:51:08;;;;;;;12.63;6.45;;;19.40;59.60;;;;;;6244844;28;20025;-78
2021/09/23 06:54:10;;;;;;;13.77;6.80;;;19.40;59.50;;;;;;6253108;28;20040;-77
2021/09/23 06:57:11;;;;;;;9.65;5.70;;;19.50;59.30;;;;;;6257698;28;20045;-77
2021/09/23 07:00:30;;;;;;;9.15;5.35;;;19.50;59.20;;;;;;6273740;28;20032;-76
2021/09/23 07:03:51;;;;;;;14.63;5.82;;;19.50;59.20;;;;;;6264264;28;20029;-78
2021/09/23 07:07:04;;;;;;;15.77;6.03;;;19.60;59.10;;;;;;6227124;28;20041;-78
2021/09/23 07:10:11;;;;;;;13.65;6.68;;;19.60;59.00;;;;;;6232530;28;20029;-78
2021/09/23 07:13:12;;;;;;;11.50;6.47;;;19.60;59.00;;;;;;6234008;28;20041;-78
2021/09/23 07:16:13;;;;;;;12.52;6.80;;;19.60;59.00;;;;;;6251846;28;20359;-78
2021/09/23 07:19:15;;;;;;;11.75;6.70;;;19.60;59.00;;;;;;6260520;28;20427;-78
2021/09/23 07:22:18;;;;;;;16.08;6.75;;;19.60;58.90;;;;;;6263491;28;20116;-78
2021/09/23 07:25:23;;;;;;;16.67;6.57;;;19.70;58.90;;;;;;6241496;28;20319;-76
2021/09/23 07:28:25;;;;;;;19.17;5.93;;;19.70;58.80;;;;;;6256906;28;20029;-76
2021/09/23 07:31:26;;;;;;;10.73;5.72;;;19.80;58.80;;;;;;6251229;28;20454;-76
2021/09/23 07:34:27;;;;;;;12.77;5.88;;;19.90;58.70;;;;;;6266245;28;20029;-77
2021/09/23 07:37:29;;;;;;;12.88;6.25;;;19.90;58.60;;;;;;6246513;28;20037;-77
2021/09/23 07:40:30;;;;;;;11.07;5.85;;;20.00;58.60;;;;;;6274294;28;20033;-77
2021/09/23 07:43:31;;;;;;;13.75;6.93;;;20.00;58.40;;;;;;6246543;28;20033;-77
2021/09/23 07:46:33;;;;;;;21.10;6.95;;;20.10;58.30;;;;;;6264135;28;20118;-77
2021/09/23 07:49:34;;;;;;;14.77;7.43;;;20.20;58.20;;;;;;6273307;28;20461;-77
2021/09/23 07:52:35;;;;;;;15.13;7.55;;;20.30;57.90;;;;;;6268851;28;20098;-77
2021/09/23 07:55:36;;;;;;;17.77;7.45;;;20.30;57.70;;;;;;6259234;28;20120;-78
2021/09/23 07:58:37;;;;;;;12.27;7.45;;;20.30;57.60;;;;;;6272540;28;20048;-78
2021/09/23 08:01:38;;;;;;;27.30;8.82;;;20.40;57.70;;;;;;6272646;28;20029;-78
2021/09/23 08:04:39;;;;;;;16.50;7.90;;;20.50;57.60;;;;;;6264916;28;20470;-78
2021/09/23 08:07:40;;;;;;;16.55;8.48;;;20.60;57.20;;;;;;6256350;28;20028;-78
2021/09/23 08:10:41;;;;;;;16.33;7.65;;;20.70;57.20;;;;;;6255504;28;20025;-77
2021/09/23 08:13:43;;;;;;;16.02;7.20;;;20.80;56.80;;;;;;6270341;28;20036;-78
2021/09/23 08:16:45;;;;;;;15.95;7.15;;;20.80;56.50;;;;;;6272364;28;20527;-77
2021/09/23 08:19:54;;;;;;;12.05;6.43;;;20.80;56.40;;;;;;6245003;28;20469;-77
2021/09/23 08:22:57;;;;;;;14.18;6.45;;;21.00;56.50;;;;;;6262884;28;20055;-77
2021/09/23 08:25:59;;;;;;;18.85;7.88;;;21.10;56.30;;;;;;6272255;28;20036;-78
2021/09/23 08:29:00;;;;;;;13.25;7.55;;;21.20;56.00;;;;;;6257062;28;20045;-77
2021/09/23 08:32:03;;;;;;;14.50;7.45;;;21.40;55.60;;;;;;6273980;28;20040;-78
2021/09/23 08:35:06;;;;;;;17.17;6.20;;;21.50;55.30;;;;;;6249880;28;20033;-77
2021/09/23 08:38:08;;;;;;;11.18;6.05;;;21.50;55.20;;;;;;6255561;28;20060;-79
2021/09/23 08:41:09;;;;;;;9.60;5.40;;;21.70;55.00;;;;;;6271534;28;20029;-78
2021/09/23 08:44:10;;;;;;;9.27;5.43;;;21.80;54.90;;;;;;6255756;28;20538;-77
2021/09/23 08:47:11;;;;;;;29.05;13.63;;;22.00;54.70;;;;;;6272353;28;20041;-77
2021/09/23 08:50:14;;;;;;;13.73;7.50;;;22.10;54.40;;;;;;6256620;28;20520;-78
2021/09/23 08:53:21;;;;;;;12.25;7.10;;;22.20;54.10;;;;;;6233563;28;20042;-78
2021/09/23 08:56:23;;;;;;;13.13;6.65;;;22.30;53.90;;;;;;6265752;28;20102;-78
2021/09/23 08:59:24;;;;;;;11.48;5.30;;;22.40;53.60;;;;;;6248215;28;20030;-78
2021/09/23 09:02:27;;;;;;;12.88;6.13;;;22.50;53.40;;;;;;6253480;28;20032;-78
2021/09/23 09:05:52;;;;;;;8.45;4.93;;;22.60;53.10;;;;;;6267618;28;20025;-77
2021/09/23 09:09:18;;;;;;;13.75;4.28;;;22.60;53.00;;;;;;6263663;28;20119;-77
2021/09/23 09:12:20;;;;;;;10.13;4.90;;;22.70;52.60;;;;;;6271337;28;20435;-77
2021/09/23 09:15:37;;;;;;;10.30;4.97;;;22.70;52.40;;;;;;6253225;28;20086;-77
2021/09/23 09:18:38;;;;;;;7.50;4.53;;;22.70;52.30;;;;;;6252847;28;20033;-77
2021/09/23 09:21:39;;;;;;;9.30;4.28;;;22.80;52.20;;;;;;6251291;28;20034;-77
2021/09/23 09:24:53;;;;;;;17.52;8.27;;;22.80;52.20;;;;;;6248904;28;20466;-77
2021/09/23 09:27:55;;;;;;;16.38;8.23;;;22.90;52.30;;;;;;6254015;28;20028;-77
2021/09/23 09:30:58;;;;;;;12.80;4.85;;;23.00;52.00;;;;;;6250943;28;20033;-77
2021/09/23 09:34:02;;;;;;;9.55;4.70;;;23.10;51.70;;;;;;6264053;28;20375;-77
2021/09/23 09:37:14;;;;;;;7.88;4.45;;;23.20;51.50;;;;;;6255184;28;20446;-77
2021/09/23 09:40:35;;;;;;;10.65;4.72;;;23.30;51.30;;;;;;6270001;28;20048;-78
2021/09/23 09:43:37;;;;;;;9.88;5.22;;;23.40;50.90;;;;;;6232932;28;20063;-79
2021/09/23 09:46:51;;;;;;;19.00;9.43;;;23.40;50.70;;;;;;6246098;28;20033;-79
2021/09/23 09:49:53;;;;;;;14.23;7.05;;;23.50;50.70;;;;;;6243622;28;20025;-78
2021/09/23 09:53:01;;;;;;;27.75;9.98;;;23.50;50.60;;;;;;6229946;28;20447;-78
2021/09/23 09:56:02;;;;;;;;;;;23.50;50.50;;;;;;6259677;28;20114;-78
2021/09/23 09:59:13;;;;;;;7.43;4.35;;;23.70;50.30;;;;;;6240075;28;19925;-78
2021/09/23 10:02:18;;;;;;;5.63;4.18;;;23.70;50.00;;;;;;6251293;28;20073;-78
2021/09/23 10:05:21;;;;;;;14.63;4.18;;;23.70;49.90;;;;;;6243996;28;20121;-77
2021/09/23 10:08:22;;;;;;;8.00;4.28;;;23.80;50.10;;;;;;6245393;28;20063;-78
2021/09/23 10:11:25;;;;;;;7.25;4.20;;;23.80;50.00;;;;;;6245731;28;20040;-78
2021/09/23 10:14:28;;;;;;;8.05;4.75;;;24.00;49.90;;;;;;6255726;28;20378;-78
2021/09/23 10:17:30;;;;;;;8.15;4.57;;;24.00;49.70;;;;;;6252727;28;20044;-78
2021/09/23 10:20:32;;;;;;;13.27;4.00;;;24.10;49.50;;;;;;6232386;28;20056;-79
2021/09/23 10:23:39;;;;;;;11.63;3.75;;;24.30;49.30;;;;;;6245626;28;20407;-78
2021/09/23 10:26:43;;;;;;;7.72;4.13;;;24.40;49.00;;;;;;6262016;28;20021;-78
2021/09/23 10:29:45;;;;;;;4.63;3.33;;;24.70;48.60;;;;;;6250508;28;20104;-79
2021/09/23 10:32:48;;;;;;;8.80;3.75;;;25.10;47.90;;;;;;6257110;28;20029;-78
2021/09/23 10:35:51;;;;;;;5.20;3.35;;;25.40;47.20;;;;;;6250455;28;20422;-78
2021/09/23 10:38:57;;;;;;;5.22;3.20;;;25.80;46.70;;;;;;6250107;28;20108;-79
2021/09/23 10:42:00;;;;;;;8.15;4.03;;;26.10;45.90;;;;;;6249934;28;20041;-78
2021/09/23 10:45:05;;;;;;;6.05;3.78;;;26.40;45.30;;;;;;6225973;28;20026;-79
2021/09/23 10:48:07;;;;;;;6.95;3.85;;;26.50;44.80;;;;;;6225234;28;20064;-79
2021/09/23 10:51:13;;;;;;;4.63;3.38;;;26.60;44.60;;;;;;6223479;28;20443;-79
2021/09/23 10:54:22;;;;;;;8.85;4.57;;;26.90;44.40;;;;;;6267011;28;20021;-79
2021/09/23 10:57:26;;;;;;;6.80;4.25;;;27.10;43.90;;;;;;6242727;28;20036;-78
2021/09/23 11:00:32;;;;;;;8.15;4.22;;;27.30;43.30;;;;;;6245696;28;20041;-79
2021/09/23 11:03:39;;;;;;;7.05;3.53;;;27.50;42.80;;;;;;6263269;28;20028;-79
2021/09/23 11:06:42;;;;;;;5.68;3.38;;;27.70;42.50;;;;;;6272765;28;20094;-77
2021/09/23 11:10:06;;;;;;;7.25;3.97;;;27.90;42.30;;;;;;6256691;28;20037;-77
2021/09/23 11:13:10;;;;;;;7.20;3.30;;;28.10;41.90;;;;;;6254759;28;20033;-78
2021/09/23 11:16:13;;;;;;;12.50;4.25;;;28.30;41.40;;;;;;6252300;28;20037;-79
2021/09/23 11:19:20;;;;;;;8.70;3.60;;;28.60;40.90;;;;;;6246941;28;20029;-78
2021/09/23 11:22:56;;;;;;;7.03;3.70;;;28.70;40.50;;;;;;6242198;28;20339;-78
2021/09/23 11:26:01;;;;;;;5.72;3.42;;;28.90;39.90;;;;;;6149680;28;20509;-78
2021/09/23 11:29:04;;;;;;;8.10;3.75;;;29.00;39.50;;;;;;6197703;28;20477;-79
2021/09/23 11:32:05;;;;;;;11.93;4.00;;;29.00;39.50;;;;;;6169729;28;20121;-78
2021/09/23 11:35:08;;;;;;;11.13;4.22;;;29.00;39.20;;;;;;6174071;28;20109;-78
2021/09/23 11:38:14;;;;;;;5.63;3.50;;;29.10;39.20;;;;;;6188476;28;20479;-79
2021/09/23 11:41:15;;;;;;;6.32;3.08;;;29.30;39.10;;;;;;6147027;28;20452;-78
2021/09/23 11:44:25;;;;;;;6.85;3.72;;;29.50;38.90;;;;;;6169829;28;20348;-78
2021/09/23 11:47:27;;;;;;;4.85;2.90;;;29.70;38.70;;;;;;6197790;28;20034;-78
2021/09/23 11:50:46;;;;;;;7.57;3.33;;;30.10;38.60;;;;;;6179952;28;20045;-78
2021/09/23 11:53:53;;;;;;;4.30;3.03;;;30.50;37.90;;;;;;6164920;28;20054;-79
2021/09/23 11:56:55;;;;;;;4.97;3.17;;;31.00;37.30;;;;;;6176474;28;20411;-78
2021/09/23 11:59:58;;;;;;;3.75;2.67;;;31.20;36.60;;;;;;6199035;28;20034;-79
2021/09/23 12:02:59;;;;;;;4.53;2.92;;;31.50;36.30;;;;;;6221223;28;20116;-79
2021/09/23 12:06:11;;;;;;;4.82;3.00;;;31.90;35.60;;;;;;6248160;28;20099;-78
2021/09/23 12:09:15;;;;;;;4.22;2.75;;;32.30;34.70;;;;;;6230807;28;20029;-79
2021/09/23 12:12:27;;;;;;;6.22;2.72;;;32.90;34.00;;;;;;6248634;28;20036;-79
2021/09/23 12:15:30;;;;;;;14.35;3.30;;;33.40;33.30;;;;;;6246920;28;20450;-78
2021/09/23 12:18:34;;;;;;;5.65;2.40;;;34.00;32.30;;;;;;6229762;28;20092;-77
2021/09/23 12:21:35;;;;;;;5.82;2.58;;;34.60;31.40;;;;;;6230354;28;20040;-78
2021/09/23 12:24:42;;;;;;;2.83;2.33;;;35.20;30.50;;;;;;6251212;28;20025;-78
2021/09/23 12:27:58;;;;;;;4.50;2.78;;;35.70;29.80;;;;;;6256993;28;20053;-78
2021/09/23 12:31:04;;;;;;;3.92;2.80;;;35.80;29.40;;;;;;6232258;28;20438;-77
2021/09/23 12:34:14;;;;;;;3.95;2.75;;;35.90;29.10;;;;;;6249432;28;20100;-78
2021/09/23 12:37:24;;;;;;;6.80;3.20;;;36.50;28.80;;;;;;6240607;28;20038;-77
2021/09/23 12:40:31;;;;;;;2.95;2.42;;;37.00;28.30;;;;;;6244108;28;20089;-79
2021/09/23 12:43:33;;;;;;;4.38;2.50;;;37.50;27.80;;;;;;6243760;28;20037;-78
2021/09/23 12:46:35;;;;;;;7.35;2.97;;;38.00;27.20;;;;;;6227111;28;20513;-79
2021/09/23 12:50:04;;;;;;;4.85;2.90;;;38.30;26.70;;;;;;6213861;28;20029;-78
2021/09/23 12:53:17;;;;;;;3.33;2.50;;;37.60;26.70;;;;;;6197380;28;20049;-78
2021/09/23 12:56:24;;;;;;;6.68;2.50;;;36.50;27.70;;;;;;6200231;28;20045;-78
2021/09/23 12:59:29;;;;;;;6.23;2.00;;;35.80;28.40;;;;;;6188078;28;20201;-78
2021/09/23 13:02:31;;;;;;;5.03;2.30;;;35.70;28.30;;;;;;6181752;28;20146;-77
2021/09/23 13:05:32;;;;;;;2.85;2.30;;;35.30;28.60;;;;;;6200291;28;20038;-77
2021/09/23 13:08:44;;;;;;;2.72;1.95;;;34.80;28.90;;;;;;6184884;28;20030;-76
2021/09/23 13:11:46;;;;;;;4.85;2.10;;;34.80;29.00;;;;;;6200439;28;20123;-77
2021/09/23 13:15:34;;;;;;;3.63;2.63;;;34.80;28.90;;;;;;6214846;28;20026;-78
2021/09/23 13:18:37;;;;;;;6.05;2.88;;;34.90;28.70;;;;;;6199317;28;20107;-78
2021/09/23 13:21:48;;;;;;;4.30;2.30;;;35.00;28.60;;;;;;6186910;28;20030;-78
2021/09/23 13:24:51;;;;;;;5.22;2.53;;;34.60;29.00;;;;;;6190544;28;20046;-78
2021/09/23 13:27:53;;;;;;;5.90;2.33;;;33.90;29.60;;;;;;6173073;28;20333;-78
2021/09/23 13:30:58;;;;;;;3.65;2.30;;;33.20;30.10;;;;;;6236392;28;20144;-77
2021/09/23 13:34:01;;;;;;;3.63;2.13;;;32.50;31.10;;;;;;6245205;28;20060;-77
2021/09/23 13:37:06;;;;;;;4.38;2.22;;;31.80;31.90;;;;;;6244048;28;20362;-78
2021/09/23 13:40:10;;;;;;;8.98;2.42;;;31.30;32.60;;;;;;6243964;28;20037;-77
2021/09/23 13:43:12;;;;;;;2.20;1.98;;;30.90;33.40;;;;;;6213432;28;20041;-78
2021/09/23 13:46:38;;;;;;;6.03;2.10;;;30.50;34.20;;;;;;6233770;28;20049;-78
2021/09/23 13:49:40;;;;;;;3.72;2.45;;;30.10;34.70;;;;;;6263925;28;20449;-79
2021/09/23 13:52:41;;;;;;;2.72;1.98;;;29.80;35.10;;;;;;6261818;28;20110;-78
2021/09/23 13:55:42;;;;;;;2.97;2.10;;;29.60;35.50;;;;;;6259044;28;20057;-78
2021/09/23 13:58:45;;;;;;;4.47;2.15;;;29.40;35.80;;;;;;6243066;28;20029;-78
2021/09/23 14:01:47;;;;;;;2.92;2.40;;;29.30;36.10;;;;;;6245528;28;20030;-78
2021/09/23 14:04:50;;;;;;;4.00;2.72;;;29.20;36.50;;;;;;6256963;28;20025;-78
2021/09/23 14:07:51;;;;;;;6.35;2.40;;;29.10;36.80;;;;;;6256522;28;20057;-78
2021/09/23 14:10:53;;;;;;;3.25;2.30;;;29.00;37.10;;;;;;6243675;28;20044;-77
2021/09/23 14:14:24;;;;;;;3.55;2.50;;;28.90;37.30;;;;;;6240449;28;20335;-78
2021/09/23 14:17:26;;;;;;;3.13;1.95;;;28.80;37.50;;;;;;6224202;28;20037;-78
2021/09/23 14:20:28;;;;;;;2.88;2.33;;;28.70;37.70;;;;;;6208754;28;20121;-78
2021/09/23 14:23:29;;;;;;;5.60;2.22;;;28.60;37.90;;;;;;6240882;28;20041;-79
2021/09/23 14:26:31;;;;;;;3.80;2.30;;;28.50;38.10;;;;;;6224399;28;20060;-78
2021/09/23 14:29:39;;;;;;;3.13;2.42;;;28.50;38.30;;;;;;6265209;28;20036;-78
2021/09/23 14:32:40;;;;;;;2.80;2.08;;;28.50;38.40;;;;;;6261744;28;20454;-77
2021/09/23 14:35:41;;;;;;;3.90;2.88;;;28.50;38.50;;;;;;6266405;28;20446;-78
2021/09/23 14:38:46;;;;;;;5.43;2.50;;;28.50;38.70;;;;;;6244749;28;20033;-76
2021/09/23 14:41:46;;;;;;;4.80;2.80;;;28.40;38.70;;;;;;6222658;28;20073;-78
2021/09/23 14:44:48;;;;;;;3.88;2.35;;;28.40;38.90;;;;;;6242725;28;20117;-77
2021/09/23 14:47:50;;;;;;;6.18;2.30;;;28.40;39.00;;;;;;6225064;28;20029;-77
2021/09/23 14:50:51;;;;;;;5.15;3.00;;;28.40;39.20;;;;;;6226901;28;20034;-78
2021/09/23 14:53:52;;;;;;;7.85;2.80;;;28.40;39.40;;;;;;6217191;28;20095;-77
2021/09/23 14:56:53;;;;;;;4.60;2.65;;;28.40;39.50;;;;;;6239579;28;20038;-77
2021/09/23 14:59:54;;;;;;;3.63;2.53;;;28.30;39.60;;;;;;6227252;28;20044;-78
2021/09/23 15:02:55;;;;;;;6.63;2.55;;;28.30;39.80;;;;;;6237603;28;20057;-78
2021/09/23 15:05:57;;;;;;;6.80;2.85;;;28.30;39.90;;;;;;6246996;28;20078;-78
2021/09/23 15:08:58;;;;;;;4.03;2.88;;;28.30;40.00;;;;;;6250916;28;20049;-78
2021/09/23 15:12:01;;;;;;;8.85;3.90;;;28.20;40.10;;;;;;6233168;28;20042;-79
2021/09/23 15:15:03;;;;;;;7.75;2.85;;;28.20;40.20;;;;;;6240815;28;20045;-78
2021/09/23 15:18:04;;;;;;;4.22;2.47;;;28.20;40.40;;;;;;6249414;28;20060;-79
2021/09/23 15:21:07;;;;;;;3.53;2.72;;;28.20;40.40;;;;;;6249658;28;20044;-78
2021/09/23 15:24:08;;;;;;;7.65;2.53;;;28.20;40.50;;;;;;6251211;28;20037;-78
2021/09/23 15:27:09;;;;;;;4.38;2.90;;;28.10;40.50;;;;;;6249374;28;20465;-78
2021/09/23 15:30:11;;;;;;;5.80;2.72;;;28.10;40.60;;;;;;6240916;28;20041;-79
2021/09/23 15:33:12;;;;;;;7.63;2.83;;;28.10;40.70;;;;;;6239189;28;20030;-78
2021/09/23 15:36:15;;;;;;;3.83;2.65;;;28.10;40.90;;;;;;6231240;28;20106;-78
2021/09/23 15:39:17;;;;;;;6.50;2.75;;;28.10;41.20;;;;;;6217488;28;20018;-78
2021/09/23 15:42:18;;;;;;;5.80;2.70;;;28.00;41.30;;;;;;6223370;28;20129;-78
2021/09/23 15:45:20;;;;;;;4.70;2.95;;;27.90;41.40;;;;;;6236937;28;20427;-78
2021/09/23 15:48:21;;;;;;;4.13;2.70;;;27.80;41.50;;;;;;6242938;28;20112;-77
2021/09/23 15:51:22;;;;;;;5.95;3.50;;;27.80;41.60;;;;;;6247457;28;20336;-77